Data for 12/01/2009

Time Sea-Level Adjusted Pressure Absolute Pressure Temperature Relative Humidity Dew Point   
(mb) (inHg) (mb) (inHg) (C) (F) (%) (C) (F)
00:05 1013 29.91 842 24.86 3.4 38.1 39 -9.3 15.3
00:10 1013 29.91 842 24.86 3.6 38.6 38 -9.4 15.1
00:15 1013 29.91 842 24.86 3.7 38.7 38 -9.3 15.2
00:20 1013 29.91 842 24.86 3.7 38.6 39 -9.2 15.5
00:25 1013 29.91 842 24.86 3.6 38.6 39 -9.2 15.5
00:30 1013 29.91 842 24.86 3.7 38.6 39 -9.1 15.6
00:35 1013 29.91 842 24.86 3.7 38.6 39 -9.2 15.4
00:40 1013 29.91 842 24.86 3.6 38.5 38 -9.3 15.3
00:45 1013 29.91 842 24.86 3.6 38.5 39 -9.1 15.6
00:50 1013 29.91 842 24.86 3.6 38.4 38 -9.4 15.1
00:55 1013 29.91 842 24.86 3.6 38.5 40 -8.9 16
01:00 1013 29.91 842 24.86 3.5 38.3 42 -8.1 17.4
01:05 1013 29.91 842 24.86 3.4 38.1 43 -8.1 17.5
01:10 1013 29.91 842 24.86 3.2 37.8 44 -8 17.5
01:15 1013 29.91 842 24.86 3.1 37.6 43 -8.3 17.1
01:20 1013 29.91 842 24.86 2.9 37.2 47 -7.2 19
01:25 1013 29.91 842 24.86 2.4 36.3 48 -7.5 18.5
01:30 1013 29.91 842 24.86 2.1 35.7 49 -7.6 18.4
01:35 1013 29.91 842 24.86 2.4 36.2 46 -8 17.6
01:40 1013 29.91 842 24.86 2.7 36.8 45 -8.1 17.4
01:45 1013 29.91 842 24.86 2.9 37.2 44 -8.2 17.2
01:50 1013 29.91 842 24.86 3 37.4 44 -8.1 17.5
01:55 1013 29.91 842 24.86 3 37.4 44 -8.1 17.4
02:00 1013 29.91 842 24.86 3 37.4 44 -8.2 17.3
02:05 1013 29.91 842 24.86 3 37.3 45 -7.9 17.8
02:10 1013 29.91 842 24.86 2.9 37.2 46 -7.7 18.1
02:15 1013 29.91 842 24.86 2.9 37.2 45 -7.9 17.8
02:20 1013 29.91 842 24.86 2.8 37 47 -7.6 18.3
02:25 1013 29.91 842 24.86 2.6 36.7 48 -7.4 18.6
02:30 1013 29.91 842 24.86 2.5 36.5 49 -7.3 18.9
02:35 1013 29.91 842 24.86 2.3 36.2 51 -6.9 19.6
02:40 1013 29.91 842 24.86 2.1 35.7 52 -6.7 19.9
02:45 1013 29.91 842 24.86 1.9 35.4 54 -6.3 20.6
02:50 1013 29.91 842 24.86 1.8 35.2 55 -6.2 20.9
02:55 1013 29.91 842 24.86 1.7 35 57 -5.9 21.4
03:00 1013 29.91 842 24.86 1.7 35 58 -5.8 21.5
03:05 1013 29.91 842 24.86 1.7 35 58 -5.6 21.9
03:10 1013 29.91 842 24.86 1.6 34.9 59 -5.5 22
03:15 1013 29.91 842 24.86 1.6 34.9 60 -5.3 22.4
03:20 1013 29.91 843 24.89 1.5 34.7 62 -5 22.9
03:25 1014 29.94 843 24.89 0.5 32.8 67 -5 23
03:30 1013 29.91 843 24.89 0.3 32.5 67 -5.2 22.6
03:35 1013 29.91 843 24.89 0.4 32.6 67 -5.1 22.7
03:40 1014 29.94 843 24.89 0.7 33.2 66 -5 23
03:45 1014 29.94 843 24.89 0.9 33.6 66 -4.8 23.3
03:50 1014 29.94 843 24.89 0.8 33.5 66 -4.8 23.4
03:55 1013 29.91 843 24.89 0.7 33.3 67 -4.7 23.5
04:00 1013 29.91 843 24.89 0.7 33.3 67 -4.8 23.4
04:05 1014 29.94 843 24.89 0.7 33.3 67 -4.7 23.5
04:10 1014 29.94 843 24.89 0.5 33 70 -4.4 24.1
04:15 1014 29.94 843 24.89 0.3 32.6 71 -4.4 24
04:20 1014 29.94 843 24.89 0.3 32.6 71 -4.3 24.2
04:25 1014 29.94 843 24.89 0.2 32.3 72 -4.4 24.2
04:30 1014 29.94 843 24.89 -0.3 31.5 73 -4.5 24
04:35 1014 29.94 843 24.89 -0.7 30.8 73 -4.8 23.3
04:40 1014 29.94 844 24.92 -1.1 30.1 75 -5 23
04:45 1014 29.94 844 24.92 -1.3 29.6 75 -5.2 22.7
04:50 1014 29.94 844 24.92 -1.6 29.1 76 -5.3 22.4
04:55 1015 29.97 844 24.92 -1.9 28.6 75 -5.7 21.7
05:00 1015 29.97 844 24.92 -2.1 28.1 75 -6 21.3
05:05 1015 29.97 844 24.92 -2.3 27.8 75 -6.1 21
05:10 1015 29.97 844 24.92 -2.6 27.3 76 -6.3 20.6
05:15 1015 29.97 844 24.92 -2.8 26.9 76 -6.4 20.4
05:20 1015 29.97 844 24.92 -3.1 26.4 77 -6.6 20.1
05:25 1015 29.97 844 24.92 -3.3 26.1 78 -6.6 20.2
05:30 1015 29.97 845 24.95 -3.5 25.7 78 -6.8 19.8
05:35 1015 29.97 845 24.95 -3.6 25.5 78 -6.9 19.6
05:40 1016 30 845 24.95 -3.8 25.2 79 -6.9 19.5
05:45 1016 30 845 24.95 -4 24.9 78 -7.2 19.1
05:50 1016 30 845 24.95 -4.1 24.7 79 -7.3 18.9
05:55 1016 30 845 24.95 -4.2 24.4 80 -7.2 19
06:00 1016 30 845 24.95 -4.3 24.2 79 -7.5 18.5
06:05 1016 30 846 24.98 -4.5 23.9 81 -7.3 18.9
06:10 1016 30 846 24.98 -4.6 23.6 82 -7.3 18.8
06:15 1017 30.03 846 24.98 -4.8 23.4 83 -7.2 19
06:20 1017 30.03 846 24.98 -5.1 22.9 86 -7.1 19.3
06:25 1017 30.03 846 24.98 -5.4 22.2 89 -7 19.4
06:30 1017 30.03 846 24.98 -5.7 21.8 89 -7.1 19.1
06:35 1017 30.03 846 24.98 -5.8 21.6 90 -7.2 19.1
06:40 1017 30.03 846 24.98 -5.8 21.5 91 -7 19.3
06:45 1017 30.03 846 24.98 -5.9 21.4 92 -7 19.3
06:50 1017 30.03 846 24.98 -5.9 21.4 91 -7.1 19.2
06:55 1017 30.03 846 24.98 -5.9 21.4 91 -7.1 19.3
07:00 1017 30.03 847 25.01 -6 21.2 92 -7.2 19.1
07:05 1017 30.03 847 25.01 -6.1 21.1 92 -7.1 19.1
07:10 1018 30.06 847 25.01 -6.1 21 92 -7.2 19
07:15 1018 30.06 847 25.01 -6.3 20.7 92 -7.4 18.7
07:20 1018 30.06 847 25.01 -6.4 20.5 93 -7.4 18.7
07:25 1018 30.06 847 25.01 -6.4 20.4 93 -7.3 18.8
07:30 1018 30.06 847 25.01 -6.4 20.5 93 -7.3 18.8
07:35 1018 30.06 847 25.01 -6.4 20.5 93 -7.4 18.8
07:40 1018 30.06 848 25.04 -6.3 20.6 91 -7.6 18.4
07:45 1019 30.09 848 25.04 -6.3 20.6 91 -7.6 18.3
07:50 1019 30.09 848 25.04 -6.3 20.7 91 -7.5 18.5
07:55 1019 30.09 848 25.04 -6.3 20.7 92 -7.4 18.8
08:00 1019 30.09 848 25.04 -6.3 20.6 92 -7.4 18.7
08:05 1019 30.09 848 25.04 -6.3 20.7 91 -7.5 18.4
08:10 1019 30.09 848 25.04 -6.3 20.6 90 -7.7 18.2
08:15 1019 30.09 848 25.04 -6.4 20.5 91 -7.6 18.4
08:20 1019 30.09 848 25.04 -6.3 20.7 91 -7.5 18.5
08:25 1019 30.09 848 25.04 -6.2 20.8 92 -7.3 18.8
08:30 1019 30.09 848 25.04 -6.2 20.9 92 -7.3 18.9
08:35 1019 30.09 848 25.04 -6.1 21 91 -7.3 18.8
08:40 1019 30.09 848 25.04 -6.3 20.7 91 -7.5 18.6
08:45 1019 30.09 848 25.04 -6.4 20.4 91 -7.6 18.3
08:50 1019 30.09 848 25.04 -6.6 20.1 91 -7.8 17.9
08:55 1019 30.09 848 25.04 -6.7 19.9 93 -7.7 18.1
09:00 1019 30.09 848 25.04 -6.6 20.2 92 -7.7 18.1
09:05 1019 30.09 848 25.04 -6.5 20.3 91 -7.7 18.2
09:10 1019 30.09 848 25.04 -6.6 20.1 92 -7.7 18.1
09:15 1019 30.09 848 25.04 -6.5 20.2 91 -7.7 18.1
09:20 1019 30.09 848 25.04 -6.6 20.1 91 -7.8 17.9
09:25 1019 30.09 848 25.04 -6.9 19.7 92 -8 17.7
09:30 1019 30.09 848 25.04 -6.8 19.7 92 -8 17.6
09:35 1019 30.09 848 25.04 -6.7 19.9 92 -7.9 17.8
09:40 1019 30.09 848 25.04 -6.6 20.1 91 -7.9 17.8
09:45 1019 30.09 848 25.04 -6.6 20.1 91 -7.9 17.7
09:50 1019 30.09 848 25.04 -6.7 19.9 91 -7.9 17.8
09:55 1019 30.09 849 25.07 -6.5 20.3 91 -7.8 17.9
10:00 1019 30.09 849 25.07 -6.4 20.5 91 -7.7 18.2
10:05 1020 30.12 849 25.07 -6.4 20.5 90 -7.8 17.9
10:10 1020 30.12 849 25.07 -6.6 20 92 -7.8 18
10:15 1020 30.12 849 25.07 -6.3 20.6 93 -7.3 18.8
10:20 1020 30.12 849 25.07 -5.8 21.6 91 -7 19.5
10:25 1020 30.12 849 25.07 -5.5 22.2 90 -6.9 19.6
10:30 1020 30.12 849 25.07 -5.5 22.2 89 -7 19.4
10:35 1020 30.12 849 25.07 -5.6 22 90 -7 19.4
10:40 1020 30.12 849 25.07 -5.5 22.2 89 -7 19.3
10:45 1020 30.12 849 25.07 -5.4 22.4 86 -7.3 18.8
10:50 1020 30.12 849 25.07 -5.5 22.1 86 -7.5 18.5
10:55 1020 30.12 849 25.07 -5.6 22 86 -7.5 18.5
11:00 1020 30.12 849 25.07 -5.5 22 87 -7.4 18.7
11:05 1020 30.12 849 25.07 -5.5 22.1 87 -7.3 18.8
11:10 1020 30.12 849 25.07 -5.5 22.2 87 -7.3 18.9
11:15 1020 30.12 849 25.07 -5.4 22.3 87 -7.2 19
11:20 1020 30.12 849 25.07 -5.2 22.6 85 -7.3 18.8
11:25 1020 30.12 849 25.07 -5.3 22.5 86 -7.2 19
11:30 1020 30.12 849 25.07 -5.3 22.4 87 -7.2 19
11:35 1020 30.12 849 25.07 -5.4 22.2 85 -7.6 18.4
11:40 1020 30.12 849 25.07 -5.5 22 83 -8 17.7
11:45 1020 30.12 849 25.07 -5.6 21.9 85 -7.8 17.9
11:50 1020 30.12 849 25.07 -5.4 22.3 83 -7.9 17.8
11:55 1020 30.12 849 25.07 -5.2 22.7 77 -8.6 16.4
12:00 1020 30.12 849 25.07 -5.2 22.6 73 -9.4 15.1
12:05 1020 30.12 849 25.07 -5 23 73 -9.2 15.4
12:10 1020 30.12 849 25.07 -5 23 71 -9.5 15
12:15 1020 30.12 849 25.07 -5.2 22.7 72 -9.4 15.1
12:20 1020 30.12 849 25.07 -5.1 22.7 74 -9 15.8
12:25 1020 30.12 849 25.07 -5.2 22.7 74 -9.1 15.6
12:30 1020 30.12 849 25.07 -5.2 22.7 75 -8.9 15.9
12:35 1020 30.12 849 25.07 -5.3 22.5 76 -8.9 16
12:40 1020 30.12 849 25.07 -5.3 22.4 77 -8.7 16.3
12:45 1020 30.12 849 25.07 -5.2 22.7 78 -8.5 16.8
12:50 1020 30.12 849 25.07 -5.2 22.7 77 -8.6 16.6
12:55 1020 30.12 849 25.07 -5.3 22.5 77 -8.7 16.3
13:00 1020 30.12 849 25.07 -5.4 22.3 74 -9.3 15.3
13:05 1020 30.12 849 25.07 -5.1 22.7 73 -9.3 15.2
13:10 1020 30.12 849 25.07 -4.8 23.3 68 -9.8 14.3
13:15 1020 30.12 849 25.07 -4.8 23.3 66 -10.2 13.6
13:20 1020 30.12 849 25.07 -4.8 23.4 64 -10.6 12.9
13:25 1020 30.12 849 25.07 -5.1 22.8 64 -11 12.3
13:30 1020 30.12 849 25.07 -5.3 22.4 67 -10.6 12.9
13:35 1020 30.12 849 25.07 -5.4 22.3 67 -10.5 13.1
13:40 1020 30.12 849 25.07 -5.3 22.4 66 -10.8 12.6
13:45 1020 30.12 849 25.07 -5.3 22.5 65 -10.9 12.3
13:50 1020 30.12 849 25.07 -5.1 22.8 65 -10.7 12.7
13:55 1020 30.12 849 25.07 -5.2 22.7 65 -10.7 12.7
14:00 1020 30.12 849 25.07 -5.1 22.8 64 -10.9 12.5
14:05 1020 30.12 849 25.07 -4.9 23.2 66 -10.3 13.4
14:10 1020 30.12 849 25.07 -6 21.3 72 -10.2 13.7
14:15 1020 30.12 849 25.07 -6.3 20.7 72 -10.5 13.2
14:20 1020 30.12 849 25.07 -5.8 21.5 67 -10.9 12.3
14:25 1020 30.12 849 25.07 -5.8 21.5 67 -11 12.2
14:30 1020 30.12 849 25.07 -6.1 21.1 66 -11.4 11.5
14:35 1020 30.12 849 25.07 -5.6 21.9 62 -11.8 10.7
14:40 1020 30.12 850 25.1 -5.7 21.8 62 -11.9 10.6
14:45 1021 30.15 850 25.1 -5.6 21.9 64 -11.4 11.4
14:50 1021 30.15 850 25.1 -5.7 21.7 65 -11.3 11.6
14:55 1021 30.15 850 25.1 -6 21.2 65 -11.6 11.2
15:00 1021 30.15 850 25.1 -6.5 20.4 67 -11.7 10.9
15:05 1021 30.15 850 25.1 -6.4 20.5 64 -12.1 10.3
15:10 1021 30.15 850 25.1 -6.5 20.3 67 -11.6 11
15:15 1021 30.15 850 25.1 -6.5 20.2 65 -12.1 10.3
15:20 1021 30.15 850 25.1 -6.6 20.1 68 -11.6 11.2
15:25 1021 30.15 850 25.1 -6.9 19.7 69 -11.6 11.2
15:30 1021 30.15 850 25.1 -7.1 19.1 71 -11.5 11.3
15:35 1021 30.15 850 25.1 -7.1 19.2 69 -11.9 10.6
15:40 1021 30.15 850 25.1 -7.3 18.9 69 -12 10.4
15:45 1021 30.15 850 25.1 -7.6 18.4 70 -12.2 10
15:50 1021 30.15 850 25.1 -7.7 18.1 69 -12.5 9.4
15:55 1021 30.15 850 25.1 -7.7 18.1 68 -12.6 9.2
16:00 1021 30.15 850 25.1 -7.9 17.9 67 -13 8.6
16:05 1021 30.15 850 25.1 -8 17.6 66 -13.2 8.3
16:10 1021 30.15 850 25.1 -8.6 16.6 68 -13.5 7.8
16:15 1021 30.15 850 25.1 -8.8 16.1 69 -13.6 7.6
16:20 1021 30.15 850 25.1 -8.5 16.7 67 -13.6 7.5
16:25 1021 30.15 850 25.1 -8.4 16.9 67 -13.5 7.6
16:30 1021 30.15 850 25.1 -8.5 16.7 67 -13.6 7.4
16:35 1021 30.15 850 25.1 -8.6 16.6 67 -13.6 7.6
16:40 1021 30.15 850 25.1 -8.7 16.3 67 -13.8 7.2
16:45 1021 30.15 850 25.1 -8.9 15.9 68 -13.9 7
16:50 1021 30.15 850 25.1 -9.1 15.6 68 -14 6.9
16:55 1021 30.15 850 25.1 -9.1 15.6 68 -14.1 6.7
17:00 1021 30.15 850 25.1 -9.2 15.5 68 -14 6.8
17:05 1021 30.15 850 25.1 -9.3 15.4 72 -13.4 7.8
17:10 1021 30.15 851 25.13 -9.1 15.7 71 -13.4 7.8
17:15 1021 30.15 850 25.1 -9.3 15.3 72 -13.4 7.8
17:20 1021 30.15 851 25.13 -9.3 15.3 71 -13.6 7.5
17:25 1021 30.15 851 25.13 -9.2 15.5 70 -13.6 7.4
17:30 1021 30.15 851 25.13 -9.1 15.6 74 -12.9 8.9
17:35 1021 30.15 851 25.13 -9 15.9 73 -13 8.6
17:40 1021 30.15 851 25.13 -9.1 15.6 71 -13.4 7.9
17:45 1021 30.15 850 25.1 -9.3 15.4 72 -13.4 7.8
17:50 1021 30.15 850 25.1 -9.3 15.3 71 -13.6 7.4
17:55 1021 30.15 850 25.1 -9.3 15.2 71 -13.7 7.3
18:00 1021 30.15 850 25.1 -9.3 15.4 71 -13.6 7.5
18:05 1021 30.15 850 25.1 -9 15.7 73 -13.1 8.5
18:10 1021 30.15 850 25.1 -9 15.8 73 -13.1 8.5
18:15 1021 30.15 850 25.1 -9.3 15.3 73 -13.3 8.1
18:20 1021 30.15 850 25.1 -9.5 14.8 76 -13.1 8.4
18:25 1021 30.15 850 25.1 -9.6 14.8 75 -13.3 8.1
18:30 1021 30.15 850 25.1 -9.6 14.6 72 -13.9 7.1
18:35 1021 30.15 850 25.1 -9.5 14.8 70 -14 6.8
18:40 1021 30.15 850 25.1 -9.6 14.7 71 -13.9 7.1
18:45 1021 30.15 851 25.13 -9.6 14.8 73 -13.6 7.6
18:50 1021 30.15 851 25.13 -9.8 14.4 77 -13.1 8.4
18:55 1021 30.15 851 25.13 -10 14.1 75 -13.6 7.5
19:00 1021 30.15 851 25.13 -10.1 13.8 74 -13.9 7
19:05 1021 30.15 851 25.13 -10.2 13.6 75 -13.8 7.1
19:10 1021 30.15 851 25.13 -10.5 13.1 77 -13.7 7.3
19:15 1021 30.15 851 25.13 -10.7 12.7 78 -13.8 7.2
19:20 1021 30.15 851 25.13 -11 12.2 79 -13.9 7
19:25 1022 30.18 851 25.13 -11.1 12.1 79 -14 6.8
19:30 1022 30.18 851 25.13 -11.5 11.2 81 -14.2 6.4
19:35 1022 30.18 851 25.13 -11.7 10.9 81 -14.3 6.3
19:40 1022 30.18 851 25.13 -11.9 10.5 82 -14.4 6
19:45 1022 30.18 851 25.13 -12.2 10 84 -14.4 6
19:50 1022 30.18 851 25.13 -11.9 10.5 82 -14.3 6.2
19:55 1022 30.18 851 25.13 -11.5 11.3 80 -14.3 6.3
20:00 1022 30.18 851 25.13 -11.5 11.3 80 -14.3 6.2
20:05 1022 30.18 851 25.13 -11.6 11.2 80 -14.4 6.1
20:10 1022 30.18 851 25.13 -11.6 11.2 81 -14.2 6.4
20:15 1022 30.18 851 25.13 -11.5 11.2 80 -14.3 6.3
20:20 1022 30.18 851 25.13 -11.7 10.9 81 -14.4 6.1
20:25 1022 30.18 851 25.13 -11.9 10.6 81 -14.5 5.9
20:30 1022 30.18 851 25.13 -12.1 10.3 82 -14.5 5.8
20:35 1022 30.18 851 25.13 -11.9 10.6 80 -14.7 5.6
20:40 1022 30.18 851 25.13 -11.7 10.9 79 -14.6 5.8
20:45 1022 30.18 851 25.13 -12 10.3 81 -14.6 5.7
20:50 1022 30.18 851 25.13 -12 10.4 80 -14.7 5.5
20:55 1022 30.18 851 25.13 -12.2 10.1 81 -14.8 5.3
21:00 1022 30.18 851 25.13 -12.1 10.2 80 -14.8 5.3
21:05 1022 30.18 851 25.13 -11.9 10.6 80 -14.7 5.6
21:10 1022 30.18 851 25.13 -11.9 10.7 80 -14.6 5.6
21:15 1022 30.18 851 25.13 -11.9 10.5 80 -14.6 5.6
21:20 1022 30.18 851 25.13 -12.1 10.3 81 -14.7 5.6
21:25 1022 30.18 851 25.13 -12.1 10.3 80 -14.8 5.3
21:30 1022 30.18 851 25.13 -12.1 10.2 81 -14.8 5.4
21:35 1022 30.18 851 25.13 -12 10.3 81 -14.6 5.7
21:40 1022 30.18 851 25.13 -11.8 10.7 81 -14.5 5.8
21:45 1022 30.18 851 25.13 -11.6 11.2 79 -14.5 6
21:50 1022 30.18 851 25.13 -11.5 11.2 79 -14.5 5.9
21:55 1022 30.18 851 25.13 -12.1 10.3 76 -15.4 4.2
22:00 1022 30.18 851 25.13 -12 10.4 75 -15.6 3.9
22:05 1022 30.18 851 25.13 -12.2 10.1 74 -15.8 3.5
22:10 1022 30.18 851 25.13 -12.6 9.4 78 -15.6 3.9
22:15 1022 30.18 851 25.13 -12.8 8.9 80 -15.5 4
22:20 1022 30.18 851 25.13 -12.6 9.2 80 -15.4 4.3
22:25 1022 30.18 851 25.13 -12.3 9.9 79 -15.3 4.5
22:30 1022 30.18 851 25.13 -12.7 9.2 79 -15.6 4
22:35 1021 30.15 851 25.13 -12.8 9 80 -15.5 4.1
22:40 1021 30.15 851 25.13 -12.8 9 81 -15.4 4.2
22:45 1021 30.15 851 25.13 -13.1 8.4 81 -15.7 3.8
22:50 1021 30.15 851 25.13 -13.3 8.2 81 -15.9 3.4
22:55 1021 30.15 851 25.13 -13.1 8.4 80 -15.9 3.4
23:00 1021 30.15 851 25.13 -13.1 8.5 81 -15.7 3.7
23:05 1021 30.15 851 25.13 -13.3 8 81 -15.9 3.4
23:10 1021 30.15 851 25.13 -13.6 7.6 82 -16 3.1
23:15 1021 30.15 851 25.13 -13.5 7.8 81 -16.1 3.1
23:20 1021 30.15 850 25.1 -13.4 8 82 -15.9 3.4
23:25 1021 30.15 850 25.1 -13.2 8.3 80 -16 3.2
23:30 1021 30.15 850 25.1 -13.6 7.5 80 -16.4 2.5
23:35 1021 30.15 850 25.1 -13.9 7 80 -16.5 2.2
23:40 1021 30.15 850 25.1 -14 6.8 80 -16.7 2
23:45 1021 30.15 850 25.1 -13.8 7.2 79 -16.7 2
23:50 1021 30.15 850 25.1 -14.1 6.7 80 -16.8 1.8
23:55 1021 30.15 850 25.1 -14 6.8 80 -16.7 1.9
24:00 1021 30.15 850 25.1 -13.8 7.1 79 -16.7 2